sensor_id;sensor_type;location;lat;lon;timestamp;temperature;humidity
43862;DHT22;29510;52.140;5.034;2023-07-31T00:02:41;15.90;99.90
43862;DHT22;29510;52.140;5.034;2023-07-31T00:12:44;16.00;99.90
43862;DHT22;29510;52.140;5.034;2023-07-31T00:22:45;16.20;99.90
43862;DHT22;29510;52.140;5.034;2023-07-31T00:32:46;16.60;99.90
43862;DHT22;29510;52.140;5.034;2023-07-31T00:42:47;16.80;99.90
43862;DHT22;29510;52.140;5.034;2023-07-31T00:52:48;16.70;99.90
43862;DHT22;29510;52.140;5.034;2023-07-31T01:02:50;16.70;99.90
43862;DHT22;29510;52.140;5.034;2023-07-31T01:12:53;16.50;99.90
43862;DHT22;29510;52.140;5.034;2023-07-31T01:33:16;16.40;99.90
43862;DHT22;29510;52.140;5.034;2023-07-31T01:43:17;16.50;99.90
43862;DHT22;29510;52.140;5.034;2023-07-31T01:53:18;16.50;99.90
43862;DHT22;29510;52.140;5.034;2023-07-31T02:03:19;16.50;99.90
43862;DHT22;29510;52.140;5.034;2023-07-31T02:13:20;16.50;99.90
43862;DHT22;29510;52.140;5.034;2023-07-31T02:23:21;16.40;99.90
43862;DHT22;29510;52.140;5.034;2023-07-31T02:33:22;16.50;99.90
43862;DHT22;29510;52.140;5.034;2023-07-31T02:43:23;16.50;99.90
43862;DHT22;29510;52.140;5.034;2023-07-31T02:53:25;16.40;99.90
43862;DHT22;29510;52.140;5.034;2023-07-31T03:03:26;16.40;99.90
43862;DHT22;29510;52.140;5.034;2023-07-31T03:13:27;16.40;99.90
43862;DHT22;29510;52.140;5.034;2023-07-31T03:23:28;16.40;99.90
43862;DHT22;29510;52.140;5.034;2023-07-31T03:33:29;16.30;99.90
43862;DHT22;29510;52.140;5.034;2023-07-31T03:43:30;16.30;99.90
43862;DHT22;29510;52.140;5.034;2023-07-31T03:53:31;16.10;99.90
43862;DHT22;29510;52.140;5.034;2023-07-31T04:03:32;16.10;99.90
43862;DHT22;29510;52.140;5.034;2023-07-31T04:13:33;16.10;99.90
43862;DHT22;29510;52.140;5.034;2023-07-31T04:23:34;16.20;99.90
43862;DHT22;29510;52.140;5.034;2023-07-31T04:33:35;16.20;99.90
43862;DHT22;29510;52.140;5.034;2023-07-31T04:43:36;16.20;99.90
43862;DHT22;29510;52.140;5.034;2023-07-31T04:53:39;16.10;99.90
43862;DHT22;29510;52.140;5.034;2023-07-31T05:03:40;16.10;99.90
43862;DHT22;29510;52.140;5.034;2023-07-31T05:13:41;16.10;99.90
43862;DHT22;29510;52.140;5.034;2023-07-31T05:23:42;16.00;99.90
43862;DHT22;29510;52.140;5.034;2023-07-31T05:33:44;16.10;99.90
43862;DHT22;29510;52.140;5.034;2023-07-31T05:43:45;16.00;99.90
43862;DHT22;29510;52.140;5.034;2023-07-31T05:53:46;15.90;99.90
43862;DHT22;29510;52.140;5.034;2023-07-31T06:03:47;16.00;99.90
43862;DHT22;29510;52.140;5.034;2023-07-31T06:13:49;16.00;99.90
43862;DHT22;29510;52.140;5.034;2023-07-31T06:23:50;16.00;99.90
43862;DHT22;29510;52.140;5.034;2023-07-31T06:33:52;16.20;99.90
43862;DHT22;29510;52.140;5.034;2023-07-31T06:43:53;16.20;99.90
43862;DHT22;29510;52.140;5.034;2023-07-31T06:53:54;16.30;99.90
43862;DHT22;29510;52.140;5.034;2023-07-31T07:03:55;16.40;99.90
43862;DHT22;29510;52.140;5.034;2023-07-31T07:13:56;16.50;99.90
43862;DHT22;29510;52.140;5.034;2023-07-31T07:23:57;16.60;99.90
43862;DHT22;29510;52.140;5.034;2023-07-31T07:33:58;16.70;99.90
43862;DHT22;29510;52.140;5.034;2023-07-31T07:43:59;16.70;99.90
43862;DHT22;29510;52.140;5.034;2023-07-31T07:54:01;16.70;99.90
43862;DHT22;29510;52.140;5.034;2023-07-31T08:04:02;16.80;99.90
43862;DHT22;29510;52.140;5.034;2023-07-31T08:14:03;16.90;99.90
43862;DHT22;29510;52.140;5.034;2023-07-31T08:24:04;17.00;99.90
43862;DHT22;29510;52.140;5.034;2023-07-31T08:34:05;17.20;99.90
43862;DHT22;29510;52.140;5.034;2023-07-31T08:44:07;17.30;99.90
43862;DHT22;29510;52.140;5.034;2023-07-31T08:54:08;17.30;99.90
43862;DHT22;29510;52.140;5.034;2023-07-31T09:04:10;17.30;99.90
43862;DHT22;29510;52.140;5.034;2023-07-31T09:14:14;17.50;99.90
43862;DHT22;29510;52.140;5.034;2023-07-31T09:24:31;17.50;99.90
43862;DHT22;29510;52.140;5.034;2023-07-31T09:34:38;17.50;99.90
43862;DHT22;29510;52.140;5.034;2023-07-31T09:44:41;17.60;99.90
43862;DHT22;29510;52.140;5.034;2023-07-31T09:54:42;17.60;99.90
43862;DHT22;29510;52.140;5.034;2023-07-31T10:04:44;17.60;99.90
43862;DHT22;29510;52.140;5.034;2023-07-31T10:14:46;17.70;99.90
43862;DHT22;29510;52.140;5.034;2023-07-31T10:24:48;17.70;99.90
43862;DHT22;29510;52.140;5.034;2023-07-31T10:34:50;17.90;99.90
43862;DHT22;29510;52.140;5.034;2023-07-31T10:44:58;18.00;99.90
43862;DHT22;29510;52.140;5.034;2023-07-31T10:55:24;18.20;1.00
43862;DHT22;29510;52.140;5.034;2023-07-31T11:15:48;18.30;99.90
43862;DHT22;29510;52.140;5.034;2023-07-31T11:25:49;18.10;99.90
43862;DHT22;29510;52.140;5.034;2023-07-31T11:35:51;18.30;99.90
43862;DHT22;29510;52.140;5.034;2023-07-31T11:45:57;18.30;99.90
43862;DHT22;29510;52.140;5.034;2023-07-31T11:55:59;18.20;99.90
43862;DHT22;29510;52.140;5.034;2023-07-31T12:06:01;18.30;99.90
43862;DHT22;29510;52.140;5.034;2023-07-31T12:16:04;18.30;99.90
43862;DHT22;29510;52.140;5.034;2023-07-31T12:26:15;18.30;99.90
43862;DHT22;29510;52.140;5.034;2023-07-31T12:36:20;18.30;99.90
43862;DHT22;29510;52.140;5.034;2023-07-31T12:46:21;18.50;99.90
43862;DHT22;29510;52.140;5.034;2023-07-31T12:56:22;18.50;99.90
43862;DHT22;29510;52.140;5.034;2023-07-31T13:06:25;18.50;99.90
43862;DHT22;29510;52.140;5.034;2023-07-31T13:16:26;18.90;99.90
43862;DHT22;29510;52.140;5.034;2023-07-31T13:26:28;18.90;99.90
43862;DHT22;29510;52.140;5.034;2023-07-31T13:36:30;18.90;99.90
43862;DHT22;29510;52.140;5.034;2023-07-31T13:46:31;19.10;99.90
43862;DHT22;29510;52.140;5.034;2023-07-31T13:56:33;18.80;99.90
43862;DHT22;29510;52.140;5.034;2023-07-31T14:06:34;18.80;99.90
43862;DHT22;29510;52.140;5.034;2023-07-31T14:16:35;18.60;99.90
43862;DHT22;29510;52.140;5.034;2023-07-31T14:26:36;18.60;99.90
43862;DHT22;29510;52.140;5.034;2023-07-31T14:36:37;18.60;99.90
43862;DHT22;29510;52.140;5.034;2023-07-31T14:46:38;18.50;99.90
43862;DHT22;29510;52.140;5.034;2023-07-31T14:56:39;18.40;99.90
43862;DHT22;29510;52.140;5.034;2023-07-31T15:06:40;18.30;99.90
43862;DHT22;29510;52.140;5.034;2023-07-31T15:16:42;18.30;99.90
43862;DHT22;29510;52.140;5.034;2023-07-31T15:26:43;18.30;99.90
43862;DHT22;29510;52.140;5.034;2023-07-31T15:36:44;18.20;99.90
43862;DHT22;29510;52.140;5.034;2023-07-31T15:46:45;18.20;99.90
43862;DHT22;29510;52.140;5.034;2023-07-31T15:56:46;18.10;99.90
43862;DHT22;29510;52.140;5.034;2023-07-31T16:06:47;18.10;99.90
43862;DHT22;29510;52.140;5.034;2023-07-31T16:16:48;18.00;99.90
43862;DHT22;29510;52.140;5.034;2023-07-31T16:26:49;18.00;99.90
43862;DHT22;29510;52.140;5.034;2023-07-31T16:36:50;17.90;99.90
43862;DHT22;29510;52.140;5.034;2023-07-31T16:46:51;17.90;99.90
43862;DHT22;29510;52.140;5.034;2023-07-31T16:56:52;17.60;99.90
43862;DHT22;29510;52.140;5.034;2023-07-31T17:06:53;17.50;99.90
43862;DHT22;29510;52.140;5.034;2023-07-31T17:16:54;17.70;1.00
43862;DHT22;29510;52.140;5.034;2023-07-31T17:26:55;17.80;1.00
43862;DHT22;29510;52.140;5.034;2023-07-31T17:36:56;17.80;1.00
43862;DHT22;29510;52.140;5.034;2023-07-31T17:46:57;17.80;1.00
43862;DHT22;29510;52.140;5.034;2023-07-31T17:56:59;17.90;1.00
43862;DHT22;29510;52.140;5.034;2023-07-31T18:07:00;17.80;1.00
43862;DHT22;29510;52.140;5.034;2023-07-31T18:17:02;17.90;1.00
43862;DHT22;29510;52.140;5.034;2023-07-31T18:27:04;17.90;1.00
43862;DHT22;29510;52.140;5.034;2023-07-31T18:37:05;17.90;1.00
43862;DHT22;29510;52.140;5.034;2023-07-31T18:47:06;17.80;1.00
43862;DHT22;29510;52.140;5.034;2023-07-31T18:57:07;17.70;1.00
43862;DHT22;29510;52.140;5.034;2023-07-31T19:07:08;17.70;1.00
43862;DHT22;29510;52.140;5.034;2023-07-31T19:17:09;17.70;1.00
43862;DHT22;29510;52.140;5.034;2023-07-31T19:27:10;17.70;1.00
43862;DHT22;29510;52.140;5.034;2023-07-31T19:37:11;17.50;99.90
43862;DHT22;29510;52.140;5.034;2023-07-31T19:47:12;17.30;99.90
43862;DHT22;29510;52.140;5.034;2023-07-31T19:57:13;17.20;99.90
43862;DHT22;29510;52.140;5.034;2023-07-31T20:07:16;17.00;99.90
43862;DHT22;29510;52.140;5.034;2023-07-31T20:17:17;16.90;99.90
43862;DHT22;29510;52.140;5.034;2023-07-31T20:27:21;16.90;99.90
43862;DHT22;29510;52.140;5.034;2023-07-31T20:37:22;16.90;99.90
43862;DHT22;29510;52.140;5.034;2023-07-31T20:47:23;16.90;99.90
43862;DHT22;29510;52.140;5.034;2023-07-31T20:57:24;16.90;99.90
43862;DHT22;29510;52.140;5.034;2023-07-31T21:07:25;16.90;99.90
43862;DHT22;29510;52.140;5.034;2023-07-31T21:17:26;16.80;99.90
43862;DHT22;29510;52.140;5.034;2023-07-31T21:27:27;16.70;99.90
43862;DHT22;29510;52.140;5.034;2023-07-31T21:37:29;16.60;99.90
43862;DHT22;29510;52.140;5.034;2023-07-31T21:47:30;16.40;99.90
43862;DHT22;29510;52.140;5.034;2023-07-31T21:57:31;16.30;99.90
43862;DHT22;29510;52.140;5.034;2023-07-31T22:07:32;16.20;99.90
43862;DHT22;29510;52.140;5.034;2023-07-31T22:17:33;16.30;99.90
43862;DHT22;29510;52.140;5.034;2023-07-31T22:27:34;16.20;99.90
43862;DHT22;29510;52.140;5.034;2023-07-31T22:37:35;16.10;99.90
43862;DHT22;29510;52.140;5.034;2023-07-31T22:47:37;15.80;99.90
43862;DHT22;29510;52.140;5.034;2023-07-31T22:57:40;15.60;99.90
43862;DHT22;29510;52.140;5.034;2023-07-31T23:07:41;15.50;99.90
43862;DHT22;29510;52.140;5.034;2023-07-31T23:17:42;15.40;99.90
43862;DHT22;29510;52.140;5.034;2023-07-31T23:27:43;15.40;99.90
43862;DHT22;29510;52.140;5.034;2023-07-31T23:37:45;15.40;99.90
43862;DHT22;29510;52.140;5.034;2023-07-31T23:47:46;15.40;99.90
43862;DHT22;29510;52.140;5.034;2023-07-31T23:57:47;15.60;99.90
